sensor_id;sensor_type;location;lat;lon;timestamp;P1;durP1;ratioP1;P2;durP2;ratioP2
14516;SDS011;7344;50.864;4.362;2023-06-26T00:02:20;6.03;;;5.43;;
14516;SDS011;7344;50.864;4.362;2023-06-26T00:04:45;6.82;;;5.47;;
14516;SDS011;7344;50.864;4.362;2023-06-26T00:07:11;6.20;;;5.60;;
14516;SDS011;7344;50.864;4.362;2023-06-26T00:09:36;9.30;;;5.18;;
14516;SDS011;7344;50.864;4.362;2023-06-26T00:12:02;6.28;;;5.47;;
14516;SDS011;7344;50.864;4.362;2023-06-26T00:14:28;5.57;;;4.82;;
14516;SDS011;7344;50.864;4.362;2023-06-26T00:16:54;5.30;;;4.60;;
14516;SDS011;7344;50.864;4.362;2023-06-26T00:19:19;5.60;;;5.05;;
14516;SDS011;7344;50.864;4.362;2023-06-26T00:21:45;8.30;;;5.00;;
14516;SDS011;7344;50.864;4.362;2023-06-26T00:24:13;5.75;;;5.28;;
14516;SDS011;7344;50.864;4.362;2023-06-26T00:26:39;5.30;;;4.90;;
14516;SDS011;7344;50.864;4.362;2023-06-26T00:29:05;4.57;;;4.18;;
14516;SDS011;7344;50.864;4.362;2023-06-26T00:31:30;5.45;;;4.28;;
14516;SDS011;7344;50.864;4.362;2023-06-26T00:33:56;4.40;;;4.00;;
14516;SDS011;7344;50.864;4.362;2023-06-26T00:36:22;4.22;;;3.92;;
14516;SDS011;7344;50.864;4.362;2023-06-26T00:38:51;5.07;;;4.38;;
14516;SDS011;7344;50.864;4.362;2023-06-26T00:41:17;4.50;;;4.10;;
14516;SDS011;7344;50.864;4.362;2023-06-26T00:43:43;5.25;;;4.00;;
14516;SDS011;7344;50.864;4.362;2023-06-26T00:46:09;4.80;;;4.40;;
14516;SDS011;7344;50.864;4.362;2023-06-26T00:48:36;4.88;;;4.07;;
14516;SDS011;7344;50.864;4.362;2023-06-26T00:51:02;5.60;;;4.15;;
14516;SDS011;7344;50.864;4.362;2023-06-26T00:53:28;5.95;;;4.25;;
14516;SDS011;7344;50.864;4.362;2023-06-26T00:55:55;4.68;;;4.28;;
14516;SDS011;7344;50.864;4.362;2023-06-26T00:58:24;6.25;;;4.72;;
14516;SDS011;7344;50.864;4.362;2023-06-26T01:00:50;6.82;;;4.47;;
14516;SDS011;7344;50.864;4.362;2023-06-26T01:03:17;5.75;;;4.10;;
14516;SDS011;7344;50.864;4.362;2023-06-26T01:05:44;4.75;;;4.35;;
14516;SDS011;7344;50.864;4.362;2023-06-26T01:08:11;4.93;;;4.13;;
14516;SDS011;7344;50.864;4.362;2023-06-26T01:10:38;5.05;;;3.75;;
14516;SDS011;7344;50.864;4.362;2023-06-26T01:13:04;5.65;;;4.18;;
14516;SDS011;7344;50.864;4.362;2023-06-26T01:15:30;4.18;;;3.78;;
14516;SDS011;7344;50.864;4.362;2023-06-26T01:17:57;6.72;;;4.30;;
14516;SDS011;7344;50.864;4.362;2023-06-26T01:20:25;5.95;;;4.07;;
14516;SDS011;7344;50.864;4.362;2023-06-26T01:28:44;4.65;;;3.75;;
14516;SDS011;7344;50.864;4.362;2023-06-26T01:31:11;4.55;;;4.00;;
14516;SDS011;7344;50.864;4.362;2023-06-26T01:33:37;5.40;;;4.13;;
14516;SDS011;7344;50.864;4.362;2023-06-26T01:36:04;6.00;;;4.10;;
14516;SDS011;7344;50.864;4.362;2023-06-26T01:38:30;3.88;;;3.50;;
14516;SDS011;7344;50.864;4.362;2023-06-26T01:40:56;5.95;;;3.65;;
14516;SDS011;7344;50.864;4.362;2023-06-26T01:43:43;5.82;;;3.90;;
14516;SDS011;7344;50.864;4.362;2023-06-26T01:46:22;4.72;;;3.65;;
14516;SDS011;7344;50.864;4.362;2023-06-26T01:49:02;6.00;;;3.80;;
14516;SDS011;7344;50.864;4.362;2023-06-26T01:51:32;6.10;;;4.05;;
14516;SDS011;7344;50.864;4.362;2023-06-26T01:54:05;7.20;;;3.95;;
14516;SDS011;7344;50.864;4.362;2023-06-26T01:56:35;3.95;;;3.55;;
14516;SDS011;7344;50.864;4.362;2023-06-26T01:59:03;4.25;;;3.83;;
14516;SDS011;7344;50.864;4.362;2023-06-26T02:01:30;5.20;;;3.85;;
14516;SDS011;7344;50.864;4.362;2023-06-26T02:03:58;5.85;;;4.03;;
14516;SDS011;7344;50.864;4.362;2023-06-26T02:06:24;6.78;;;4.10;;
14516;SDS011;7344;50.864;4.362;2023-06-26T02:08:50;4.60;;;3.95;;
14516;SDS011;7344;50.864;4.362;2023-06-26T02:11:15;7.50;;;3.75;;
14516;SDS011;7344;50.864;4.362;2023-06-26T02:13:41;4.30;;;3.90;;
14516;SDS011;7344;50.864;4.362;2023-06-26T02:16:07;4.80;;;3.47;;
14516;SDS011;7344;50.864;4.362;2023-06-26T02:18:32;5.22;;;3.70;;
14516;SDS011;7344;50.864;4.362;2023-06-26T02:20:58;5.03;;;3.90;;
14516;SDS011;7344;50.864;4.362;2023-06-26T02:23:23;4.57;;;3.90;;
14516;SDS011;7344;50.864;4.362;2023-06-26T02:25:49;5.18;;;3.80;;
14516;SDS011;7344;50.864;4.362;2023-06-26T02:28:14;7.75;;;4.57;;
14516;SDS011;7344;50.864;4.362;2023-06-26T02:30:40;4.95;;;4.22;;
14516;SDS011;7344;50.864;4.362;2023-06-26T02:33:06;6.13;;;4.57;;
14516;SDS011;7344;50.864;4.362;2023-06-26T02:35:31;6.50;;;4.25;;
14516;SDS011;7344;50.864;4.362;2023-06-26T02:37:58;6.13;;;4.53;;
14516;SDS011;7344;50.864;4.362;2023-06-26T02:40:23;8.15;;;4.30;;
14516;SDS011;7344;50.864;4.362;2023-06-26T02:42:49;10.98;;;4.43;;
14516;SDS011;7344;50.864;4.362;2023-06-26T02:45:14;6.65;;;4.47;;
14516;SDS011;7344;50.864;4.362;2023-06-26T02:47:41;6.75;;;4.15;;
14516;SDS011;7344;50.864;4.362;2023-06-26T02:50:07;5.53;;;4.13;;
14516;SDS011;7344;50.864;4.362;2023-06-26T02:52:33;6.55;;;4.72;;
14516;SDS011;7344;50.864;4.362;2023-06-26T02:54:58;7.97;;;4.65;;
14516;SDS011;7344;50.864;4.362;2023-06-26T02:57:24;9.23;;;4.63;;
14516;SDS011;7344;50.864;4.362;2023-06-26T02:59:49;7.93;;;4.93;;
14516;SDS011;7344;50.864;4.362;2023-06-26T03:02:15;8.00;;;4.60;;
14516;SDS011;7344;50.864;4.362;2023-06-26T03:04:41;9.18;;;4.47;;
14516;SDS011;7344;50.864;4.362;2023-06-26T03:07:08;8.35;;;4.75;;
14516;SDS011;7344;50.864;4.362;2023-06-26T03:09:33;9.52;;;4.88;;
14516;SDS011;7344;50.864;4.362;2023-06-26T03:11:59;5.13;;;4.03;;
14516;SDS011;7344;50.864;4.362;2023-06-26T03:14:25;10.02;;;4.97;;
14516;SDS011;7344;50.864;4.362;2023-06-26T03:16:52;9.82;;;4.82;;
14516;SDS011;7344;50.864;4.362;2023-06-26T03:19:18;11.77;;;5.00;;
14516;SDS011;7344;50.864;4.362;2023-06-26T03:21:43;11.07;;;4.72;;
14516;SDS011;7344;50.864;4.362;2023-06-26T03:24:09;8.50;;;4.93;;
14516;SDS011;7344;50.864;4.362;2023-06-26T03:26:34;8.88;;;4.90;;
14516;SDS011;7344;50.864;4.362;2023-06-26T03:29:00;11.55;;;5.47;;
14516;SDS011;7344;50.864;4.362;2023-06-26T03:31:26;9.45;;;4.78;;
14516;SDS011;7344;50.864;4.362;2023-06-26T03:33:51;10.15;;;5.07;;
14516;SDS011;7344;50.864;4.362;2023-06-26T03:36:17;10.20;;;5.43;;
14516;SDS011;7344;50.864;4.362;2023-06-26T03:38:42;10.27;;;4.93;;
14516;SDS011;7344;50.864;4.362;2023-06-26T03:41:08;9.23;;;4.83;;
14516;SDS011;7344;50.864;4.362;2023-06-26T03:43:34;9.93;;;5.47;;
14516;SDS011;7344;50.864;4.362;2023-06-26T03:45:59;13.25;;;5.05;;
14516;SDS011;7344;50.864;4.362;2023-06-26T03:48:25;10.73;;;5.70;;
14516;SDS011;7344;50.864;4.362;2023-06-26T03:50:50;11.20;;;5.00;;
14516;SDS011;7344;50.864;4.362;2023-06-26T03:53:16;10.07;;;5.65;;
14516;SDS011;7344;50.864;4.362;2023-06-26T03:55:42;11.55;;;5.45;;
14516;SDS011;7344;50.864;4.362;2023-06-26T03:58:07;11.53;;;5.60;;
14516;SDS011;7344;50.864;4.362;2023-06-26T04:00:33;15.17;;;5.23;;
14516;SDS011;7344;50.864;4.362;2023-06-26T04:02:58;11.70;;;5.27;;
14516;SDS011;7344;50.864;4.362;2023-06-26T04:05:24;13.43;;;5.10;;
14516;SDS011;7344;50.864;4.362;2023-06-26T04:07:50;9.93;;;5.60;;
14516;SDS011;7344;50.864;4.362;2023-06-26T04:10:16;11.50;;;5.07;;
14516;SDS011;7344;50.864;4.362;2023-06-26T04:12:42;12.73;;;5.35;;
14516;SDS011;7344;50.864;4.362;2023-06-26T04:15:07;13.85;;;5.10;;
14516;SDS011;7344;50.864;4.362;2023-06-26T04:17:33;12.63;;;4.65;;
14516;SDS011;7344;50.864;4.362;2023-06-26T04:19:59;9.48;;;4.50;;
14516;SDS011;7344;50.864;4.362;2023-06-26T04:22:25;16.08;;;5.25;;
14516;SDS011;7344;50.864;4.362;2023-06-26T04:24:50;10.23;;;4.32;;
14516;SDS011;7344;50.864;4.362;2023-06-26T04:27:16;7.93;;;4.28;;
14516;SDS011;7344;50.864;4.362;2023-06-26T04:29:43;9.68;;;4.60;;
14516;SDS011;7344;50.864;4.362;2023-06-26T04:32:09;11.13;;;4.25;;
14516;SDS011;7344;50.864;4.362;2023-06-26T04:34:34;15.32;;;4.70;;
14516;SDS011;7344;50.864;4.362;2023-06-26T04:37:01;13.40;;;4.53;;
14516;SDS011;7344;50.864;4.362;2023-06-26T04:39:29;10.63;;;4.53;;
14516;SDS011;7344;50.864;4.362;2023-06-26T04:41:55;11.35;;;4.25;;
14516;SDS011;7344;50.864;4.362;2023-06-26T04:44:21;10.38;;;4.10;;
14516;SDS011;7344;50.864;4.362;2023-06-26T04:46:47;8.48;;;3.90;;
14516;SDS011;7344;50.864;4.362;2023-06-26T04:49:12;10.75;;;4.30;;
14516;SDS011;7344;50.864;4.362;2023-06-26T04:51:38;9.65;;;4.30;;
14516;SDS011;7344;50.864;4.362;2023-06-26T04:54:08;9.90;;;3.95;;
14516;SDS011;7344;50.864;4.362;2023-06-26T04:56:35;12.80;;;4.28;;
14516;SDS011;7344;50.864;4.362;2023-06-26T04:59:01;9.50;;;4.20;;
14516;SDS011;7344;50.864;4.362;2023-06-26T05:01:27;12.20;;;4.30;;
14516;SDS011;7344;50.864;4.362;2023-06-26T05:03:55;9.02;;;4.00;;
14516;SDS011;7344;50.864;4.362;2023-06-26T05:06:21;9.45;;;4.22;;
14516;SDS011;7344;50.864;4.362;2023-06-26T05:08:47;8.75;;;3.60;;
14516;SDS011;7344;50.864;4.362;2023-06-26T05:11:13;11.07;;;3.95;;
14516;SDS011;7344;50.864;4.362;2023-06-26T05:13:38;10.18;;;4.20;;
14516;SDS011;7344;50.864;4.362;2023-06-26T05:16:05;12.00;;;3.55;;
14516;SDS011;7344;50.864;4.362;2023-06-26T05:18:30;11.43;;;3.70;;
14516;SDS011;7344;50.864;4.362;2023-06-26T05:20:56;12.90;;;3.90;;
14516;SDS011;7344;50.864;4.362;2023-06-26T05:23:22;10.13;;;4.10;;
14516;SDS011;7344;50.864;4.362;2023-06-26T05:25:50;8.27;;;3.35;;
14516;SDS011;7344;50.864;4.362;2023-06-26T05:28:16;10.60;;;4.30;;
14516;SDS011;7344;50.864;4.362;2023-06-26T05:30:42;8.65;;;3.67;;
14516;SDS011;7344;50.864;4.362;2023-06-26T05:33:08;11.68;;;3.90;;
14516;SDS011;7344;50.864;4.362;2023-06-26T05:35:36;10.60;;;4.00;;
14516;SDS011;7344;50.864;4.362;2023-06-26T05:38:02;8.48;;;2.92;;
14516;SDS011;7344;50.864;4.362;2023-06-26T05:40:28;11.18;;;3.70;;
14516;SDS011;7344;50.864;4.362;2023-06-26T05:42:54;8.88;;;3.13;;
14516;SDS011;7344;50.864;4.362;2023-06-26T05:45:20;7.82;;;3.47;;
14516;SDS011;7344;50.864;4.362;2023-06-26T05:47:46;7.35;;;3.25;;
14516;SDS011;7344;50.864;4.362;2023-06-26T05:50:12;7.68;;;3.08;;
14516;SDS011;7344;50.864;4.362;2023-06-26T05:52:38;9.73;;;3.15;;
14516;SDS011;7344;50.864;4.362;2023-06-26T05:55:04;6.40;;;2.97;;
14516;SDS011;7344;50.864;4.362;2023-06-26T05:57:30;3.80;;;2.67;;
14516;SDS011;7344;50.864;4.362;2023-06-26T05:59:56;6.75;;;2.65;;
14516;SDS011;7344;50.864;4.362;2023-06-26T06:02:22;7.07;;;2.60;;
14516;SDS011;7344;50.864;4.362;2023-06-26T06:04:48;7.93;;;3.22;;
14516;SDS011;7344;50.864;4.362;2023-06-26T06:07:14;5.88;;;2.80;;
14516;SDS011;7344;50.864;4.362;2023-06-26T06:09:39;7.38;;;3.17;;
14516;SDS011;7344;50.864;4.362;2023-06-26T06:12:05;6.40;;;3.20;;
14516;SDS011;7344;50.864;4.362;2023-06-26T06:14:33;5.05;;;2.40;;
14516;SDS011;7344;50.864;4.362;2023-06-26T06:16:59;5.80;;;2.50;;
14516;SDS011;7344;50.864;4.362;2023-06-26T06:19:24;6.97;;;2.60;;
14516;SDS011;7344;50.864;4.362;2023-06-26T06:21:50;6.25;;;2.42;;
14516;SDS011;7344;50.864;4.362;2023-06-26T06:24:16;6.35;;;2.72;;
14516;SDS011;7344;50.864;4.362;2023-06-26T06:26:42;6.13;;;2.92;;
14516;SDS011;7344;50.864;4.362;2023-06-26T06:29:07;5.72;;;2.92;;
14516;SDS011;7344;50.864;4.362;2023-06-26T06:31:33;5.22;;;2.67;;
14516;SDS011;7344;50.864;4.362;2023-06-26T06:33:58;7.65;;;2.45;;
14516;SDS011;7344;50.864;4.362;2023-06-26T06:36:25;7.47;;;2.78;;
14516;SDS011;7344;50.864;4.362;2023-06-26T06:38:52;8.60;;;2.60;;
14516;SDS011;7344;50.864;4.362;2023-06-26T06:41:17;5.53;;;2.45;;
14516;SDS011;7344;50.864;4.362;2023-06-26T06:43:43;7.82;;;4.18;;
14516;SDS011;7344;50.864;4.362;2023-06-26T06:46:09;6.88;;;2.80;;
14516;SDS011;7344;50.864;4.362;2023-06-26T06:48:34;7.43;;;2.58;;
14516;SDS011;7344;50.864;4.362;2023-06-26T06:51:00;5.28;;;2.28;;
14516;SDS011;7344;50.864;4.362;2023-06-26T06:53:26;7.03;;;2.58;;
14516;SDS011;7344;50.864;4.362;2023-06-26T06:55:51;4.10;;;2.35;;
14516;SDS011;7344;50.864;4.362;2023-06-26T06:58:17;8.38;;;2.50;;
14516;SDS011;7344;50.864;4.362;2023-06-26T07:00:47;5.30;;;2.00;;
14516;SDS011;7344;50.864;4.362;2023-06-26T07:03:13;3.95;;;2.33;;
14516;SDS011;7344;50.864;4.362;2023-06-26T07:05:41;6.28;;;2.42;;
14516;SDS011;7344;50.864;4.362;2023-06-26T07:08:07;4.18;;;2.25;;
14516;SDS011;7344;50.864;4.362;2023-06-26T07:10:32;3.20;;;1.60;;
14516;SDS011;7344;50.864;4.362;2023-06-26T07:12:58;2.83;;;1.98;;
14516;SDS011;7344;50.864;4.362;2023-06-26T07:15:23;4.18;;;2.55;;
14516;SDS011;7344;50.864;4.362;2023-06-26T07:17:49;6.75;;;2.25;;
14516;SDS011;7344;50.864;4.362;2023-06-26T07:20:15;8.15;;;2.65;;
14516;SDS011;7344;50.864;4.362;2023-06-26T07:22:41;6.65;;;2.47;;
14516;SDS011;7344;50.864;4.362;2023-06-26T07:25:08;7.05;;;1.90;;
14516;SDS011;7344;50.864;4.362;2023-06-26T07:27:36;9.13;;;2.58;;
14516;SDS011;7344;50.864;4.362;2023-06-26T07:30:03;6.90;;;3.83;;
14516;SDS011;7344;50.864;4.362;2023-06-26T07:32:28;4.50;;;2.22;;
14516;SDS011;7344;50.864;4.362;2023-06-26T07:34:54;5.05;;;2.00;;
14516;SDS011;7344;50.864;4.362;2023-06-26T07:37:20;4.90;;;2.38;;
14516;SDS011;7344;50.864;4.362;2023-06-26T07:39:45;5.60;;;1.77;;
14516;SDS011;7344;50.864;4.362;2023-06-26T07:42:11;5.97;;;2.80;;
14516;SDS011;7344;50.864;4.362;2023-06-26T07:44:41;6.53;;;2.70;;
14516;SDS011;7344;50.864;4.362;2023-06-26T07:47:07;3.15;;;2.10;;
14516;SDS011;7344;50.864;4.362;2023-06-26T07:49:33;5.10;;;2.20;;
14516;SDS011;7344;50.864;4.362;2023-06-26T07:51:58;4.18;;;2.13;;
14516;SDS011;7344;50.864;4.362;2023-06-26T07:54:24;7.10;;;3.20;;
14516;SDS011;7344;50.864;4.362;2023-06-26T07:59:23;3.00;;;2.17;;
14516;SDS011;7344;50.864;4.362;2023-06-26T08:01:50;5.35;;;2.30;;
14516;SDS011;7344;50.864;4.362;2023-06-26T08:04:20;4.85;;;2.22;;
14516;SDS011;7344;50.864;4.362;2023-06-26T08:06:48;5.00;;;2.30;;
14516;SDS011;7344;50.864;4.362;2023-06-26T08:09:14;5.57;;;2.25;;
14516;SDS011;7344;50.864;4.362;2023-06-26T08:11:40;4.72;;;1.95;;
14516;SDS011;7344;50.864;4.362;2023-06-26T08:14:06;4.97;;;1.98;;
14516;SDS011;7344;50.864;4.362;2023-06-26T08:16:31;5.28;;;2.05;;
14516;SDS011;7344;50.864;4.362;2023-06-26T08:18:57;5.55;;;1.90;;
14516;SDS011;7344;50.864;4.362;2023-06-26T08:21:23;3.45;;;1.85;;
14516;SDS011;7344;50.864;4.362;2023-06-26T08:23:48;6.72;;;1.85;;
14516;SDS011;7344;50.864;4.362;2023-06-26T08:26:14;3.60;;;1.77;;
14516;SDS011;7344;50.864;4.362;2023-06-26T08:28:40;5.93;;;2.72;;
14516;SDS011;7344;50.864;4.362;2023-06-26T08:31:05;4.63;;;2.70;;
14516;SDS011;7344;50.864;4.362;2023-06-26T08:33:31;4.30;;;2.20;;
14516;SDS011;7344;50.864;4.362;2023-06-26T08:35:57;3.47;;;2.25;;
14516;SDS011;7344;50.864;4.362;2023-06-26T08:38:22;6.80;;;2.13;;
14516;SDS011;7344;50.864;4.362;2023-06-26T08:40:48;4.93;;;1.98;;
14516;SDS011;7344;50.864;4.362;2023-06-26T08:43:13;9.63;;;3.72;;
14516;SDS011;7344;50.864;4.362;2023-06-26T08:45:39;4.50;;;2.90;;
14516;SDS011;7344;50.864;4.362;2023-06-26T08:48:07;6.28;;;2.58;;
14516;SDS011;7344;50.864;4.362;2023-06-26T08:50:33;5.90;;;2.17;;
14516;SDS011;7344;50.864;4.362;2023-06-26T08:55:39;5.75;;;1.80;;
14516;SDS011;7344;50.864;4.362;2023-06-26T08:58:08;7.25;;;2.38;;
14516;SDS011;7344;50.864;4.362;2023-06-26T09:00:34;4.13;;;1.88;;
14516;SDS011;7344;50.864;4.362;2023-06-26T09:03:00;6.88;;;2.13;;
14516;SDS011;7344;50.864;4.362;2023-06-26T09:05:28;6.07;;;2.10;;
14516;SDS011;7344;50.864;4.362;2023-06-26T09:07:54;6.43;;;2.08;;
14516;SDS011;7344;50.864;4.362;2023-06-26T09:10:22;3.97;;;1.85;;
14516;SDS011;7344;50.864;4.362;2023-06-26T09:12:48;2.58;;;1.63;;
14516;SDS011;7344;50.864;4.362;2023-06-26T09:15:14;4.13;;;1.83;;
14516;SDS011;7344;50.864;4.362;2023-06-26T09:17:40;5.30;;;2.00;;
14516;SDS011;7344;50.864;4.362;2023-06-26T09:20:07;6.72;;;1.80;;
14516;SDS011;7344;50.864;4.362;2023-06-26T09:22:38;2.85;;;1.80;;
14516;SDS011;7344;50.864;4.362;2023-06-26T09:25:05;2.83;;;1.75;;
14516;SDS011;7344;50.864;4.362;2023-06-26T09:27:32;2.13;;;1.67;;
14516;SDS011;7344;50.864;4.362;2023-06-26T09:29:59;2.58;;;1.80;;
14516;SDS011;7344;50.864;4.362;2023-06-26T09:32:24;6.65;;;2.20;;
14516;SDS011;7344;50.864;4.362;2023-06-26T09:34:52;4.07;;;2.00;;
14516;SDS011;7344;50.864;4.362;2023-06-26T09:37:19;3.08;;;2.00;;
14516;SDS011;7344;50.864;4.362;2023-06-26T09:39:45;5.32;;;1.67;;
14516;SDS011;7344;50.864;4.362;2023-06-26T09:42:13;4.72;;;2.10;;
14516;SDS011;7344;50.864;4.362;2023-06-26T09:44:43;6.80;;;2.03;;
14516;SDS011;7344;50.864;4.362;2023-06-26T09:47:10;4.18;;;1.80;;
14516;SDS011;7344;50.864;4.362;2023-06-26T09:49:36;3.45;;;1.90;;
14516;SDS011;7344;50.864;4.362;2023-06-26T09:52:03;3.88;;;1.67;;
14516;SDS011;7344;50.864;4.362;2023-06-26T09:54:28;4.50;;;2.13;;
14516;SDS011;7344;50.864;4.362;2023-06-26T09:56:55;4.80;;;2.00;;
14516;SDS011;7344;50.864;4.362;2023-06-26T09:59:31;2.80;;;1.88;;
14516;SDS011;7344;50.864;4.362;2023-06-26T10:01:59;6.88;;;1.90;;
14516;SDS011;7344;50.864;4.362;2023-06-26T10:04:25;2.42;;;1.88;;
14516;SDS011;7344;50.864;4.362;2023-06-26T10:06:51;4.20;;;1.80;;
14516;SDS011;7344;50.864;4.362;2023-06-26T10:09:19;4.07;;;1.67;;
14516;SDS011;7344;50.864;4.362;2023-06-26T10:14:18;4.10;;;1.85;;
14516;SDS011;7344;50.864;4.362;2023-06-26T10:16:46;4.05;;;2.72;;
14516;SDS011;7344;50.864;4.362;2023-06-26T10:19:13;4.78;;;2.20;;
14516;SDS011;7344;50.864;4.362;2023-06-26T10:21:41;6.82;;;2.97;;
14516;SDS011;7344;50.864;4.362;2023-06-26T10:24:07;3.72;;;2.40;;
14516;SDS011;7344;50.864;4.362;2023-06-26T10:26:38;10.95;;;2.47;;
14516;SDS011;7344;50.864;4.362;2023-06-26T10:29:08;8.20;;;2.35;;
14516;SDS011;7344;50.864;4.362;2023-06-26T10:31:35;8.55;;;2.22;;
14516;SDS011;7344;50.864;4.362;2023-06-26T10:34:02;3.60;;;1.73;;
14516;SDS011;7344;50.864;4.362;2023-06-26T10:36:30;6.90;;;2.30;;
14516;SDS011;7344;50.864;4.362;2023-06-26T10:38:57;7.50;;;2.78;;
14516;SDS011;7344;50.864;4.362;2023-06-26T10:41:30;3.85;;;1.75;;
14516;SDS011;7344;50.864;4.362;2023-06-26T10:44:06;4.63;;;2.17;;
14516;SDS011;7344;50.864;4.362;2023-06-26T10:46:54;4.15;;;1.75;;
14516;SDS011;7344;50.864;4.362;2023-06-26T10:49:20;5.38;;;1.73;;
14516;SDS011;7344;50.864;4.362;2023-06-26T10:51:50;2.67;;;2.15;;
14516;SDS011;7344;50.864;4.362;2023-06-26T10:54:20;4.75;;;2.10;;
14516;SDS011;7344;50.864;4.362;2023-06-26T10:56:49;2.45;;;1.80;;
14516;SDS011;7344;50.864;4.362;2023-06-26T10:59:20;6.78;;;2.22;;
14516;SDS011;7344;50.864;4.362;2023-06-26T11:01:53;3.00;;;1.90;;
14516;SDS011;7344;50.864;4.362;2023-06-26T11:04:35;2.17;;;1.80;;
14516;SDS011;7344;50.864;4.362;2023-06-26T11:12:38;4.07;;;2.13;;
14516;SDS011;7344;50.864;4.362;2023-06-26T11:15:17;2.83;;;2.30;;
14516;SDS011;7344;50.864;4.362;2023-06-26T11:17:44;4.90;;;2.50;;
14516;SDS011;7344;50.864;4.362;2023-06-26T11:20:12;3.85;;;2.33;;
14516;SDS011;7344;50.864;4.362;2023-06-26T11:22:40;4.25;;;2.63;;
14516;SDS011;7344;50.864;4.362;2023-06-26T11:25:07;5.10;;;2.88;;
14516;SDS011;7344;50.864;4.362;2023-06-26T11:27:40;4.75;;;2.40;;
14516;SDS011;7344;50.864;4.362;2023-06-26T11:30:07;4.45;;;2.30;;
14516;SDS011;7344;50.864;4.362;2023-06-26T11:32:36;5.95;;;3.03;;
14516;SDS011;7344;50.864;4.362;2023-06-26T11:35:02;3.65;;;2.55;;
14516;SDS011;7344;50.864;4.362;2023-06-26T11:37:32;3.42;;;2.10;;
14516;SDS011;7344;50.864;4.362;2023-06-26T11:39:59;4.50;;;2.30;;
14516;SDS011;7344;50.864;4.362;2023-06-26T11:42:24;6.18;;;2.38;;
14516;SDS011;7344;50.864;4.362;2023-06-26T11:44:51;4.40;;;2.30;;
14516;SDS011;7344;50.864;4.362;2023-06-26T11:47:18;3.38;;;2.10;;
14516;SDS011;7344;50.864;4.362;2023-06-26T11:49:45;4.85;;;2.28;;
14516;SDS011;7344;50.864;4.362;2023-06-26T11:52:12;5.07;;;1.90;;
14516;SDS011;7344;50.864;4.362;2023-06-26T11:54:39;13.63;;;2.22;;
14516;SDS011;7344;50.864;4.362;2023-06-26T11:57:05;7.82;;;2.03;;
14516;SDS011;7344;50.864;4.362;2023-06-26T11:59:37;4.43;;;2.00;;
14516;SDS011;7344;50.864;4.362;2023-06-26T12:02:07;5.28;;;2.17;;
14516;SDS011;7344;50.864;4.362;2023-06-26T12:04:39;5.57;;;2.22;;
14516;SDS011;7344;50.864;4.362;2023-06-26T12:07:07;3.50;;;2.78;;
14516;SDS011;7344;50.864;4.362;2023-06-26T12:09:41;5.05;;;2.15;;
14516;SDS011;7344;50.864;4.362;2023-06-26T12:12:08;7.25;;;2.40;;
14516;SDS011;7344;50.864;4.362;2023-06-26T12:14:35;4.40;;;2.17;;
14516;SDS011;7344;50.864;4.362;2023-06-26T12:17:05;6.78;;;2.22;;
14516;SDS011;7344;50.864;4.362;2023-06-26T12:19:33;3.63;;;2.20;;
14516;SDS011;7344;50.864;4.362;2023-06-26T12:22:06;4.80;;;1.85;;
14516;SDS011;7344;50.864;4.362;2023-06-26T12:24:32;6.03;;;1.83;;
14516;SDS011;7344;50.864;4.362;2023-06-26T12:26:58;5.25;;;2.00;;
14516;SDS011;7344;50.864;4.362;2023-06-26T12:29:33;4.28;;;2.00;;
14516;SDS011;7344;50.864;4.362;2023-06-26T12:31:59;2.60;;;1.75;;
14516;SDS011;7344;50.864;4.362;2023-06-26T12:34:29;4.82;;;1.98;;
14516;SDS011;7344;50.864;4.362;2023-06-26T12:37:04;4.60;;;1.92;;
14516;SDS011;7344;50.864;4.362;2023-06-26T12:39:53;5.63;;;1.90;;
14516;SDS011;7344;50.864;4.362;2023-06-26T12:42:18;3.15;;;1.65;;
14516;SDS011;7344;50.864;4.362;2023-06-26T12:44:45;4.43;;;1.92;;
14516;SDS011;7344;50.864;4.362;2023-06-26T12:47:11;4.50;;;1.95;;
14516;SDS011;7344;50.864;4.362;2023-06-26T12:49:40;8.27;;;1.88;;
14516;SDS011;7344;50.864;4.362;2023-06-26T12:52:09;4.18;;;2.25;;
14516;SDS011;7344;50.864;4.362;2023-06-26T12:54:40;4.28;;;2.33;;
14516;SDS011;7344;50.864;4.362;2023-06-26T12:57:07;1.90;;;1.63;;
14516;SDS011;7344;50.864;4.362;2023-06-26T12:59:34;2.15;;;1.50;;
14516;SDS011;7344;50.864;4.362;2023-06-26T13:02:03;5.10;;;1.83;;
14516;SDS011;7344;50.864;4.362;2023-06-26T13:04:29;2.00;;;1.55;;
14516;SDS011;7344;50.864;4.362;2023-06-26T13:06:55;3.83;;;1.98;;
14516;SDS011;7344;50.864;4.362;2023-06-26T13:09:22;3.78;;;1.90;;
14516;SDS011;7344;50.864;4.362;2023-06-26T13:11:50;4.93;;;2.10;;
14516;SDS011;7344;50.864;4.362;2023-06-26T13:14:19;9.05;;;1.98;;
14516;SDS011;7344;50.864;4.362;2023-06-26T13:16:45;5.32;;;2.13;;
14516;SDS011;7344;50.864;4.362;2023-06-26T13:19:11;4.70;;;2.08;;
14516;SDS011;7344;50.864;4.362;2023-06-26T13:21:37;3.63;;;1.63;;
14516;SDS011;7344;50.864;4.362;2023-06-26T13:24:05;3.67;;;1.95;;
14516;SDS011;7344;50.864;4.362;2023-06-26T13:26:31;5.35;;;1.92;;
14516;SDS011;7344;50.864;4.362;2023-06-26T13:28:58;7.18;;;2.78;;
14516;SDS011;7344;50.864;4.362;2023-06-26T13:31:24;7.78;;;2.40;;
14516;SDS011;7344;50.864;4.362;2023-06-26T13:33:50;8.40;;;5.18;;
14516;SDS011;7344;50.864;4.362;2023-06-26T13:36:17;4.00;;;2.13;;
14516;SDS011;7344;50.864;4.362;2023-06-26T13:38:43;4.15;;;1.90;;
14516;SDS011;7344;50.864;4.362;2023-06-26T13:41:09;2.75;;;2.03;;
14516;SDS011;7344;50.864;4.362;2023-06-26T13:43:35;3.03;;;1.80;;
14516;SDS011;7344;50.864;4.362;2023-06-26T13:46:00;4.15;;;2.00;;
14516;SDS011;7344;50.864;4.362;2023-06-26T13:48:26;3.33;;;1.90;;
14516;SDS011;7344;50.864;4.362;2023-06-26T13:50:52;5.60;;;2.05;;
14516;SDS011;7344;50.864;4.362;2023-06-26T13:53:18;2.92;;;2.15;;
14516;SDS011;7344;50.864;4.362;2023-06-26T13:55:44;3.47;;;1.88;;
14516;SDS011;7344;50.864;4.362;2023-06-26T13:58:10;4.88;;;2.30;;
14516;SDS011;7344;50.864;4.362;2023-06-26T14:00:36;3.30;;;1.75;;
14516;SDS011;7344;50.864;4.362;2023-06-26T14:03:02;3.10;;;1.73;;
14516;SDS011;7344;50.864;4.362;2023-06-26T14:05:29;3.03;;;1.77;;
14516;SDS011;7344;50.864;4.362;2023-06-26T14:07:55;3.85;;;1.77;;
14516;SDS011;7344;50.864;4.362;2023-06-26T14:10:21;5.05;;;2.17;;
14516;SDS011;7344;50.864;4.362;2023-06-26T14:12:47;8.27;;;2.03;;
14516;SDS011;7344;50.864;4.362;2023-06-26T14:15:13;3.83;;;1.90;;
14516;SDS011;7344;50.864;4.362;2023-06-26T14:17:38;3.47;;;1.85;;
14516;SDS011;7344;50.864;4.362;2023-06-26T14:20:05;4.22;;;2.10;;
14516;SDS011;7344;50.864;4.362;2023-06-26T14:22:35;3.38;;;1.67;;
14516;SDS011;7344;50.864;4.362;2023-06-26T14:25:01;4.78;;;2.05;;
14516;SDS011;7344;50.864;4.362;2023-06-26T14:27:27;7.30;;;1.90;;
14516;SDS011;7344;50.864;4.362;2023-06-26T14:29:53;4.07;;;2.00;;
14516;SDS011;7344;50.864;4.362;2023-06-26T14:32:19;5.40;;;1.60;;
14516;SDS011;7344;50.864;4.362;2023-06-26T14:34:44;1.67;;;1.50;;
14516;SDS011;7344;50.864;4.362;2023-06-26T14:37:10;2.10;;;1.70;;
14516;SDS011;7344;50.864;4.362;2023-06-26T14:39:36;3.58;;;1.80;;
14516;SDS011;7344;50.864;4.362;2023-06-26T14:42:06;5.18;;;2.10;;
14516;SDS011;7344;50.864;4.362;2023-06-26T14:44:32;3.05;;;1.70;;
14516;SDS011;7344;50.864;4.362;2023-06-26T14:46:58;4.70;;;2.25;;
14516;SDS011;7344;50.864;4.362;2023-06-26T14:49:23;3.65;;;1.90;;
14516;SDS011;7344;50.864;4.362;2023-06-26T14:51:49;4.63;;;2.10;;
14516;SDS011;7344;50.864;4.362;2023-06-26T14:54:15;4.90;;;2.17;;
14516;SDS011;7344;50.864;4.362;2023-06-26T14:56:40;3.20;;;1.90;;
14516;SDS011;7344;50.864;4.362;2023-06-26T14:59:08;4.70;;;2.38;;
14516;SDS011;7344;50.864;4.362;2023-06-26T15:01:35;3.50;;;1.92;;
14516;SDS011;7344;50.864;4.362;2023-06-26T15:04:01;7.82;;;2.00;;
14516;SDS011;7344;50.864;4.362;2023-06-26T15:06:26;3.17;;;2.00;;
14516;SDS011;7344;50.864;4.362;2023-06-26T15:08:52;2.78;;;2.10;;
14516;SDS011;7344;50.864;4.362;2023-06-26T15:11:18;5.35;;;2.30;;
14516;SDS011;7344;50.864;4.362;2023-06-26T15:13:43;4.22;;;2.00;;
14516;SDS011;7344;50.864;4.362;2023-06-26T15:16:09;3.03;;;1.85;;
14516;SDS011;7344;50.864;4.362;2023-06-26T15:18:35;3.47;;;2.00;;